createdAt,value
2019-01-19T00:01:56.774Z,33.53
2019-01-19T00:04:59.958Z,32.17
2019-01-19T00:08:10.881Z,33.43
2019-01-19T00:11:22.308Z,33.73
2019-01-19T00:14:18.613Z,33.70
2019-01-19T00:17:28.089Z,32.83
2019-01-19T00:20:44.126Z,32.63
2019-01-19T00:24:03.955Z,35.23
2019-01-19T00:27:20.355Z,33.40
2019-01-19T00:30:20.657Z,32.43
2019-01-19T00:33:58.277Z,30.67
2019-01-19T00:37:01.642Z,31.70
2019-01-19T00:40:09.185Z,32.97
2019-01-19T00:43:18.194Z,31.40
2019-01-19T00:46:16.143Z,32.47
2019-01-19T00:49:10.327Z,31.17
2019-01-19T00:52:16.572Z,32.73
2019-01-19T00:55:21.477Z,33.00
2019-01-19T00:58:36.713Z,31.97
2019-01-19T01:01:52.184Z,29.80
2019-01-19T01:04:54.884Z,31.23
2019-01-19T01:08:12.010Z,31.47
2019-01-19T01:11:09.600Z,31.37
2019-01-19T01:14:32.387Z,35.23
2019-01-19T01:17:39.552Z,30.60
2019-01-19T01:20:41.386Z,33.90
2019-01-19T01:23:31.256Z,32.83
2019-01-19T01:26:28.610Z,31.57
2019-01-19T01:29:43.584Z,29.63
2019-01-19T01:32:34.361Z,30.37
2019-01-19T01:35:51.020Z,32.70
2019-01-19T01:39:12.398Z,33.57
2019-01-19T01:41:52.726Z,35.73
2019-01-19T01:44:43.052Z,34.17
2019-01-19T01:47:53.542Z,31.80
2019-01-19T01:50:49.053Z,33.70
2019-01-19T01:53:38.277Z,32.27
2019-01-19T01:56:14.372Z,29.30
2019-01-19T01:59:06.358Z,31.23
2019-01-19T02:02:08.452Z,31.63
2019-01-19T02:05:19.070Z,31.10
2019-01-19T02:08:25.677Z,33.30
2019-01-19T02:11:22.446Z,31.53
2019-01-19T02:14:13.430Z,33.10
2019-01-19T02:17:22.688Z,31.77
2019-01-19T02:20:21.356Z,34.77
2019-01-19T02:23:53.026Z,36.50
2019-01-19T02:26:46.290Z,39.77
2019-01-19T02:29:50.715Z,42.50
2019-01-19T02:33:08.353Z,40.30
2019-01-19T02:36:32.960Z,39.67
2019-01-19T02:39:44.317Z,39.90
2019-01-19T02:42:44.911Z,37.47
2019-01-19T02:45:37.843Z,38.43
2019-01-19T02:49:09.619Z,41.33
2019-01-19T02:52:23.111Z,38.00
2019-01-19T02:55:28.069Z,39.30
2019-01-19T02:58:32.982Z,38.37
2019-01-19T03:01:55.527Z,38.57
2019-01-19T03:04:47.305Z,37.30
2019-01-19T03:08:00.413Z,32.43
2019-01-19T03:11:06.081Z,34.07
2019-01-19T03:14:21.473Z,34.20
2019-01-19T03:17:24.867Z,35.03
2019-01-19T03:20:32.589Z,32.83
2019-01-19T03:23:36.382Z,32.60
2019-01-19T03:26:40.589Z,32.97
2019-01-19T03:29:42.963Z,31.83
2019-01-19T03:32:35.743Z,31.93
2019-01-19T03:35:41.887Z,33.57
2019-01-19T03:38:43.623Z,32.63
2019-01-19T03:41:54.076Z,32.53
2019-01-19T03:44:53.698Z,32.87
2019-01-19T03:47:55.882Z,32.90
2019-01-19T03:50:40.687Z,31.30
2019-01-19T03:53:27.414Z,33.80
2019-01-19T03:56:46.753Z,33.40
2019-01-19T03:59:30.692Z,31.90
2019-01-19T04:02:31.906Z,34.60
2019-01-19T04:05:30.727Z,33.07
2019-01-19T04:08:50.099Z,33.67
2019-01-19T04:12:05.034Z,34.17
2019-01-19T04:15:09.357Z,36.37
2019-01-19T04:18:13.542Z,34.47
2019-01-19T04:21:24.598Z,34.60
2019-01-19T04:24:02.143Z,34.97
2019-01-19T04:26:38.934Z,36.73
2019-01-19T04:29:08.501Z,33.77
2019-01-19T04:31:38.057Z,34.13
2019-01-19T04:34:07.732Z,35.53
2019-01-19T04:36:37.529Z,35.40
2019-01-19T04:39:11.748Z,34.53
2019-01-19T04:41:41.424Z,32.77
2019-01-19T04:44:10.937Z,34.67
2019-01-19T04:46:40.485Z,34.23
2019-01-19T04:49:10.934Z,33.77
2019-01-19T04:51:40.593Z,38.10
2019-01-19T04:54:10.094Z,35.07
2019-01-19T04:56:39.601Z,36.83
2019-01-19T04:59:10.380Z,34.10
2019-01-19T05:01:39.894Z,34.23
2019-01-19T05:04:09.410Z,34.77
2019-01-19T05:06:38.972Z,34.97
2019-01-19T05:09:09.544Z,35.83
2019-01-19T05:11:39.049Z,37.13
2019-01-19T05:14:08.592Z,36.97
2019-01-19T05:16:38.110Z,38.90
2019-01-19T05:19:07.609Z,38.17
2019-01-19T05:21:37.219Z,38.07
2019-01-19T05:24:06.805Z,37.80
2019-01-19T05:26:36.310Z,37.90
2019-01-19T05:29:06.238Z,37.73
2019-01-19T05:31:35.789Z,34.13
2019-01-19T05:34:05.437Z,35.07
2019-01-19T05:36:38.472Z,33.90
2019-01-19T05:39:08.636Z,34.53
2019-01-19T05:41:38.182Z,38.33
2019-01-19T05:44:07.769Z,36.40
2019-01-19T05:46:37.298Z,35.83
2019-01-19T05:49:06.837Z,32.13
2019-01-19T05:51:36.397Z,35.77
2019-01-19T05:54:06.054Z,32.30
2019-01-19T05:56:35.710Z,30.73
2019-01-19T05:59:05.286Z,31.27
2019-01-19T06:01:34.782Z,29.73
2019-01-19T06:04:04.700Z,29.20
2019-01-19T06:06:34.254Z,32.20
2019-01-19T06:09:05.192Z,29.70
2019-01-19T06:11:34.718Z,30.43
2019-01-19T06:14:04.286Z,31.63
2019-01-19T06:16:33.912Z,30.17
2019-01-19T06:19:03.625Z,32.10
2019-01-19T06:21:36.760Z,30.57
2019-01-19T06:24:06.347Z,29.20
2019-01-19T06:26:35.869Z,34.20
2019-01-19T06:29:06.471Z,34.97
2019-01-19T06:31:35.973Z,33.97
2019-01-19T06:34:05.679Z,36.67
2019-01-19T06:36:37.243Z,40.47
2019-01-19T06:39:09.442Z,42.60
2019-01-19T06:41:38.953Z,41.23
2019-01-19T06:44:08.503Z,42.27
2019-01-19T06:46:38.008Z,38.47
2019-01-19T06:49:07.539Z,38.27
2019-01-19T06:51:38.414Z,36.50
2019-01-19T06:54:08.157Z,37.97
2019-01-19T06:56:37.686Z,41.00
2019-01-19T06:59:07.263Z,37.60
2019-01-19T07:01:36.759Z,40.03
2019-01-19T07:04:06.347Z,45.17
2019-01-19T07:06:35.906Z,31.17
2019-01-19T07:09:08.337Z,33.73
2019-01-19T07:11:38.413Z,36.07
2019-01-19T07:14:07.927Z,43.90
2019-01-19T07:16:37.442Z,41.20
2019-01-19T07:19:06.996Z,34.97
2019-01-19T07:21:36.492Z,30.03
2019-01-19T07:24:06.016Z,32.00
2019-01-19T07:26:35.586Z,29.60
2019-01-19T07:29:05.097Z,31.13
2019-01-19T07:31:34.677Z,34.97
2019-01-19T07:34:04.243Z,31.87
2019-01-19T07:36:33.748Z,30.50
2019-01-19T07:39:03.513Z,28.47
2019-01-19T07:41:34.273Z,24.17
2019-01-19T07:44:05.300Z,24.63
2019-01-19T07:46:35.534Z,22.23
2019-01-19T07:49:05.087Z,26.63
2019-01-19T07:51:34.621Z,27.13
2019-01-19T07:54:05.779Z,24.60
2019-01-19T07:56:35.288Z,26.17
2019-01-19T07:59:04.802Z,27.57
2019-01-19T08:01:34.373Z,25.30
2019-01-19T08:04:03.908Z,24.73
2019-01-19T08:06:33.427Z,24.83
2019-01-19T08:09:03.981Z,25.27
2019-01-19T08:11:33.487Z,24.87
2019-01-19T08:14:02.993Z,27.33
2019-01-19T08:16:32.540Z,26.83
2019-01-19T08:19:02.044Z,28.80
2019-01-19T08:21:31.546Z,27.10
2019-01-19T08:24:01.114Z,26.53
2019-01-19T08:26:30.726Z,26.70
2019-01-19T08:29:00.240Z,29.27
2019-01-19T08:31:29.794Z,26.33
2019-01-19T08:33:59.339Z,25.93
2019-01-19T08:36:28.922Z,23.83
2019-01-19T08:38:59.789Z,23.07
2019-01-19T08:41:29.285Z,22.80
2019-01-19T08:44:02.987Z,21.90
2019-01-19T08:46:32.491Z,17.67
2019-01-19T08:49:01.998Z,19.20
2019-01-19T08:51:31.569Z,20.53
2019-01-19T08:54:01.090Z,22.27
2019-01-19T08:56:30.602Z,26.10
2019-01-19T08:59:00.178Z,26.37
2019-01-19T09:01:29.815Z,25.37
2019-01-19T09:03:59.327Z,25.47
2019-01-19T09:06:30.291Z,30.23
2019-01-19T09:08:59.796Z,28.47
2019-01-19T09:11:29.350Z,30.23
2019-01-19T09:13:58.916Z,28.13
2019-01-19T09:16:28.437Z,26.90
2019-01-19T09:18:57.940Z,25.23
2019-01-19T09:21:28.737Z,26.30
2019-01-19T09:24:15.246Z,25.87
2019-01-19T09:26:44.797Z,25.60
2019-01-19T09:29:14.293Z,25.67
2019-01-19T09:31:44.786Z,27.70
2019-01-19T09:34:14.436Z,25.63
2019-01-19T09:36:43.948Z,23.67
2019-01-19T09:39:13.581Z,23.90
2019-01-19T09:41:43.188Z,27.50
2019-01-19T09:44:12.798Z,27.03
2019-01-19T09:46:42.813Z,25.17
2019-01-19T09:49:12.545Z,25.20
2019-01-19T09:51:43.534Z,25.03
2019-01-19T09:54:13.046Z,24.23
2019-01-19T09:56:42.558Z,24.33
2019-01-19T09:59:12.108Z,26.40
2019-01-19T10:01:41.631Z,24.63
2019-01-19T10:04:11.163Z,27.30
2019-01-19T10:06:40.705Z,25.60
2019-01-19T10:09:10.226Z,23.97
2019-01-19T10:11:40.029Z,24.23
2019-01-19T10:14:10.938Z,24.03
2019-01-19T10:16:40.487Z,26.30
2019-01-19T10:19:09.980Z,27.40
2019-01-19T10:21:39.498Z,25.17
2019-01-19T10:24:10.403Z,24.27
2019-01-19T10:26:39.914Z,25.17
2019-01-19T10:29:10.317Z,23.73
2019-01-19T10:31:39.875Z,23.90
2019-01-19T10:34:09.388Z,24.47
2019-01-19T10:36:38.897Z,23.27
2019-01-19T10:39:11.125Z,24.03
2019-01-19T10:41:41.265Z,24.07
2019-01-19T10:44:10.921Z,24.67
2019-01-19T10:46:40.468Z,22.40
2019-01-19T10:49:10.144Z,23.57
2019-01-19T10:51:39.785Z,21.80
2019-01-19T10:54:09.365Z,22.50
2019-01-19T10:56:38.896Z,22.43
2019-01-19T10:59:08.404Z,21.97
2019-01-19T11:01:38.059Z,22.93
2019-01-19T11:04:07.690Z,23.77
2019-01-19T11:06:37.202Z,21.20
2019-01-19T11:09:08.332Z,21.10
2019-01-19T11:11:37.835Z,29.40
2019-01-19T11:14:07.348Z,22.97
2019-01-19T11:16:36.911Z,21.77
2019-01-19T11:19:06.426Z,25.23
2019-01-19T11:21:35.994Z,20.63
2019-01-19T11:24:05.514Z,21.23
2019-01-19T11:26:35.028Z,22.83
2019-01-19T11:29:04.679Z,21.17
2019-01-19T11:31:34.198Z,20.97
2019-01-19T11:34:03.717Z,25.90
2019-01-19T11:36:34.501Z,22.03
2019-01-19T11:39:05.815Z,17.80
2019-01-19T11:41:35.322Z,19.07
2019-01-19T11:44:06.292Z,20.00
2019-01-19T11:46:35.848Z,17.60
2019-01-19T11:49:05.363Z,15.73
2019-01-19T11:51:34.937Z,17.73
2019-01-19T11:54:05.488Z,17.90
2019-01-19T11:56:34.989Z,17.57
2019-01-19T11:59:04.694Z,16.63
2019-01-19T12:01:34.245Z,15.97
2019-01-19T12:04:03.924Z,15.63
2019-01-19T12:06:33.444Z,16.10
2019-01-19T12:09:02.985Z,15.33
2019-01-19T12:11:33.946Z,16.63
2019-01-19T12:14:03.640Z,14.93
2019-01-19T12:16:34.224Z,14.60
2019-01-19T12:19:03.835Z,16.47
2019-01-19T12:21:33.338Z,16.43
2019-01-19T12:24:02.858Z,14.33
2019-01-19T12:26:32.420Z,15.70
2019-01-19T12:29:01.927Z,15.53
2019-01-19T12:31:31.450Z,16.37
2019-01-19T12:34:01.013Z,18.70
2019-01-19T12:36:31.986Z,16.13
2019-01-19T12:39:01.753Z,16.13
2019-01-19T12:41:31.263Z,13.60
2019-01-19T12:44:00.823Z,13.53
2019-01-19T12:46:30.340Z,14.13
2019-01-19T12:48:59.855Z,13.63
2019-01-19T12:51:29.400Z,13.77
2019-01-19T12:53:58.900Z,15.03
2019-01-19T12:56:28.420Z,12.27
2019-01-19T12:58:57.981Z,15.30
2019-01-19T13:01:27.487Z,11.97
2019-01-19T13:03:56.995Z,12.20
2019-01-19T13:06:55.062Z,12.77
2019-01-19T13:09:45.784Z,13.43
2019-01-19T13:12:38.298Z,13.63
2019-01-19T13:15:44.562Z,13.13
2019-01-19T13:18:57.208Z,13.50
2019-01-19T13:22:03.745Z,12.50
2019-01-19T13:25:14.370Z,13.20
2019-01-19T13:28:36.873Z,12.40
2019-01-19T13:31:49.303Z,12.43
2019-01-19T13:34:58.091Z,12.53
2019-01-19T13:38:26.578Z,12.57
2019-01-19T13:41:21.153Z,13.50
2019-01-19T13:44:21.138Z,13.03
2019-01-19T13:47:26.257Z,13.27
2019-01-19T13:50:38.517Z,12.60
2019-01-19T13:53:56.264Z,13.57
2019-01-19T13:57:15.567Z,13.50
2019-01-19T14:00:21.555Z,11.77
2019-01-19T14:03:35.325Z,11.13
2019-01-19T14:06:43.012Z,12.07
2019-01-19T14:09:54.796Z,10.93
2019-01-19T14:12:47.426Z,11.03
2019-01-19T14:15:59.937Z,11.67
2019-01-19T14:19:01.563Z,11.23
2019-01-19T14:22:21.521Z,10.60
2019-01-19T14:25:27.887Z,11.70
2019-01-19T14:28:37.268Z,10.67
2019-01-19T14:31:55.033Z,12.80
2019-01-19T14:35:14.339Z,12.67
2019-01-19T14:38:27.852Z,11.63
2019-01-19T14:41:53.445Z,11.13
2019-01-19T14:44:47.081Z,12.17
2019-01-19T14:48:00.625Z,12.77
2019-01-19T14:51:21.977Z,11.63
2019-01-19T14:54:24.652Z,12.37
2019-01-19T14:57:39.850Z,13.33
2019-01-19T15:00:58.270Z,13.37
2019-01-19T15:04:08.854Z,12.77
2019-01-19T15:07:17.785Z,11.97
2019-01-19T15:10:22.944Z,12.10
2019-01-19T15:13:33.681Z,13.63
2019-01-19T15:16:56.198Z,12.00
2019-01-19T15:20:31.957Z,11.60
2019-01-19T15:23:35.592Z,12.90
2019-01-19T15:26:42.592Z,14.40
2019-01-19T15:30:05.842Z,13.03
2019-01-19T15:33:21.690Z,11.60
2019-01-19T15:36:34.683Z,15.70
2019-01-19T15:39:44.613Z,13.77
2019-01-19T15:42:38.673Z,11.73
2019-01-19T15:45:56.780Z,13.63
2019-01-19T15:49:21.904Z,16.93
2019-01-19T15:52:26.284Z,11.97
2019-01-19T15:55:20.700Z,13.30
2019-01-19T15:58:37.544Z,12.17
2019-01-19T16:01:49.477Z,13.67
2019-01-19T16:04:59.940Z,13.87
2019-01-19T16:08:22.398Z,13.77
2019-01-19T16:11:29.209Z,13.63
2019-01-19T16:14:32.713Z,14.27
2019-01-19T16:17:52.108Z,14.13
2019-01-19T16:21:14.578Z,14.07
2019-01-19T16:24:07.408Z,14.77
2019-01-19T16:27:06.908Z,13.93
2019-01-19T16:30:38.619Z,14.30
2019-01-19T16:33:57.946Z,14.87
2019-01-19T16:37:04.516Z,15.97
2019-01-19T16:40:11.198Z,15.30
2019-01-19T16:43:12.139Z,15.20
2019-01-19T16:46:25.232Z,14.97
2019-01-19T16:49:08.488Z,16.13
2019-01-19T16:52:11.141Z,15.30
2019-01-19T16:54:51.638Z,14.37
2019-01-19T16:57:51.790Z,14.80
2019-01-19T17:01:00.318Z,14.30
2019-01-19T17:04:18.037Z,14.13
2019-01-19T17:07:27.255Z,16.03
2019-01-19T17:10:08.617Z,14.80
2019-01-19T17:13:23.296Z,16.87
2019-01-19T17:16:29.256Z,17.70
2019-01-19T17:19:22.545Z,19.60
2019-01-19T17:22:20.117Z,16.77
2019-01-19T17:25:18.094Z,16.87
2019-01-19T17:28:35.230Z,17.77
2019-01-19T17:31:35.242Z,17.27
2019-01-19T17:34:29.449Z,15.87
2019-01-19T17:37:48.132Z,14.00
2019-01-19T17:41:05.540Z,14.23
2019-01-19T17:44:04.537Z,17.13
2019-01-19T17:46:57.145Z,14.23
2019-01-19T17:49:58.418Z,17.03
2019-01-19T17:53:05.300Z,17.43
2019-01-19T17:55:51.838Z,16.47
2019-01-19T17:59:11.477Z,20.70
2019-01-19T18:02:26.956Z,16.47
2019-01-19T18:05:45.521Z,15.47
2019-01-19T18:08:57.262Z,15.33
2019-01-19T18:11:55.288Z,18.60
2019-01-19T18:15:15.195Z,16.17
2019-01-19T18:18:08.460Z,16.70
2019-01-19T18:21:20.365Z,16.00
2019-01-19T18:24:25.922Z,16.53
2019-01-19T18:27:41.715Z,15.07
2019-01-19T18:31:06.927Z,14.70
2019-01-19T18:33:57.870Z,14.17
2019-01-19T18:36:54.761Z,14.13
2019-01-19T18:39:34.509Z,13.10
2019-01-19T18:42:44.256Z,14.23
2019-01-19T18:45:43.634Z,13.87
2019-01-19T18:48:51.412Z,12.57
2019-01-19T18:51:50.421Z,14.83
2019-01-19T18:55:00.232Z,15.60
2019-01-19T18:58:12.156Z,15.20
2019-01-19T19:01:11.749Z,15.73
2019-01-19T19:04:17.589Z,14.90
2019-01-19T19:07:26.433Z,16.23
2019-01-19T19:10:58.156Z,16.57
2019-01-19T19:13:39.821Z,17.03
2019-01-19T19:16:56.488Z,15.73
2019-01-19T19:19:51.127Z,15.63
2019-01-19T19:22:51.561Z,15.33
2019-01-19T19:26:09.187Z,12.87
2019-01-19T19:29:17.610Z,12.27
2019-01-19T19:32:22.883Z,11.33
2019-01-19T19:35:18.403Z,13.07
2019-01-19T19:38:36.817Z,12.53
2019-01-19T19:41:41.921Z,13.17
2019-01-19T19:44:53.476Z,14.33
2019-01-19T19:48:01.030Z,12.20
2019-01-19T19:51:03.340Z,11.97
2019-01-19T19:53:32.901Z,12.63
2019-01-19T19:56:00.554Z,13.43
2019-01-19T19:58:30.679Z,13.67
2019-01-19T20:01:00.446Z,13.40
2019-01-19T20:03:30.002Z,14.40
2019-01-19T20:05:59.521Z,15.63
2019-01-19T20:08:29.067Z,14.50
2019-01-19T20:10:58.894Z,14.53
2019-01-19T20:13:28.461Z,13.87
2019-01-19T20:15:58.050Z,15.90
2019-01-19T20:18:27.602Z,15.60
2019-01-19T20:20:57.113Z,16.07
2019-01-19T20:23:26.674Z,16.83
2019-01-19T20:25:56.218Z,17.10
2019-01-19T20:28:25.751Z,17.60
2019-01-19T20:30:55.314Z,17.60
2019-01-19T20:33:24.820Z,16.13
2019-01-19T20:35:54.331Z,18.03
2019-01-19T20:38:25.298Z,16.97
2019-01-19T20:40:54.809Z,16.70
2019-01-19T20:43:24.315Z,16.43
2019-01-19T20:45:53.886Z,18.70
2019-01-19T20:48:23.631Z,19.17
2019-01-19T20:50:53.135Z,19.07
2019-01-19T20:53:22.639Z,19.30
2019-01-19T20:55:52.303Z,22.17
2019-01-19T20:58:21.865Z,24.53
2019-01-19T21:00:51.530Z,18.80
2019-01-19T21:03:21.133Z,20.60
2019-01-19T21:05:50.800Z,18.93
2019-01-19T21:08:20.332Z,18.97
2019-01-19T21:10:49.837Z,19.60
2019-01-19T21:13:19.405Z,18.50
2019-01-19T21:15:48.909Z,17.53
2019-01-19T21:18:18.473Z,19.50
2019-01-19T21:20:48.030Z,21.43
2019-01-19T21:23:17.534Z,18.60
2019-01-19T21:25:47.081Z,17.30
2019-01-19T21:28:16.593Z,17.07
2019-01-19T21:30:46.328Z,18.27
2019-01-19T21:33:17.211Z,17.80
2019-01-19T21:35:46.714Z,18.53
2019-01-19T21:38:16.258Z,19.00
2019-01-19T21:40:45.755Z,17.07
2019-01-19T21:43:15.306Z,16.70
2019-01-19T21:45:44.804Z,16.10
2019-01-19T21:48:14.296Z,17.27
2019-01-19T21:50:45.057Z,18.73
2019-01-19T21:53:14.588Z,19.07
2019-01-19T21:55:44.304Z,16.97
2019-01-19T21:58:14.017Z,18.67
2019-01-19T22:00:43.635Z,17.03
2019-01-19T22:03:14.467Z,18.37
2019-01-19T22:05:49.597Z,17.63
2019-01-19T22:08:15.219Z,19.13
2019-01-19T22:10:46.457Z,21.30
2019-01-19T22:13:16.164Z,20.47
2019-01-19T22:15:45.656Z,20.00
2019-01-19T22:18:15.226Z,19.90
2019-01-19T22:20:44.729Z,20.77
2019-01-19T22:23:14.223Z,20.77
2019-01-19T22:25:44.057Z,22.00
2019-01-19T22:28:13.560Z,20.30
2019-01-19T22:30:43.067Z,21.37
2019-01-19T22:33:14.662Z,21.20
2019-01-19T22:35:44.379Z,20.20
2019-01-19T22:38:13.913Z,20.20
2019-01-19T22:40:44.675Z,21.00
2019-01-19T22:43:18.330Z,22.20
2019-01-19T22:45:47.827Z,19.53
2019-01-19T22:48:17.367Z,20.43
2019-01-19T22:50:46.864Z,20.47
2019-01-19T22:53:16.359Z,20.97
2019-01-19T22:55:45.909Z,20.83
2019-01-19T22:58:15.466Z,20.67
2019-01-19T23:01:02.828Z,20.20
2019-01-19T23:03:34.771Z,21.47
2019-01-19T23:06:04.823Z,19.83
2019-01-19T23:08:35.564Z,22.20
2019-01-19T23:11:05.224Z,21.33
2019-01-19T23:13:34.765Z,22.03
2019-01-19T23:16:04.760Z,21.17
2019-01-19T23:18:34.262Z,19.70
2019-01-19T23:21:03.834Z,21.13
2019-01-19T23:23:33.339Z,20.33
2019-01-19T23:26:03.697Z,20.67
2019-01-19T23:28:33.514Z,22.73
2019-01-19T23:31:03.057Z,21.37
2019-01-19T23:33:32.560Z,20.47
2019-01-19T23:36:02.169Z,19.93
2019-01-19T23:38:31.717Z,21.30
2019-01-19T23:41:08.694Z,20.47
2019-01-19T23:43:32.494Z,20.23
2019-01-19T23:46:02.071Z,21.50
2019-01-19T23:48:31.769Z,19.63
2019-01-19T23:51:01.310Z,22.07
2019-01-19T23:53:30.870Z,22.57
2019-01-19T23:56:00.403Z,22.20
2019-01-19T23:58:29.940Z,21.27
